Time;durP1;ratioP1;P1;durP2;ratioP2;P2;SDS_P1;SDS_P2;PMS_P1;PMS_P2;Temp;Humidity;BMP_temperature;BMP_pressure;BME280_temperature;BME280_humidity;BME280_pressure;Samples;Min_cycle;Max_cycle;Signal;HPM_P1;HPM_P2
2023/12/22 00:01:08;;;;;;;50.72;4.63;;;;;;;;;;6365968;22;20018;-81
2023/12/22 00:03:35;;;;;;;67.28;5.43;;;;;;;;;;6365308;22;20371;-81
2023/12/22 00:06:02;;;;;;;33.03;3.55;;;;;;;;;;6338436;22;20014;-81
2023/12/22 00:08:29;;;;;;;38.97;3.88;;;;;;;;;;6365866;22;20107;-84
2023/12/22 00:10:56;;;;;;;54.75;4.15;;;;;;;;;;6366238;22;20038;-83
2023/12/22 00:13:22;;;;;;;47.35;4.60;;;;;;;;;;6365701;22;20018;-83
2023/12/22 00:15:50;;;;;;;69.65;5.65;;;;;;;;;;6365859;22;20018;-83
2023/12/22 00:18:17;;;;;;;61.90;5.20;;;;;;;;;;6364945;22;20089;-83
2023/12/22 00:20:43;;;;;;;50.40;3.97;;;;;;;;;;6363074;22;20387;-82
2023/12/22 00:23:11;;;;;;;44.20;4.45;;;;;;;;;;6337981;22;20022;-80
2023/12/22 00:25:38;;;;;;;48.28;4.18;;;;;;;;;;6366182;22;20018;-80
2023/12/22 00:28:05;;;;;;;80.13;6.28;;;;;;;;;;6365513;22;20067;-80
2023/12/22 00:30:31;;;;;;;38.53;4.18;;;;;;;;;;6338164;22;20113;-80
2023/12/22 00:32:58;;;;;;;50.33;5.65;;;;;;;;;;6365171;22;20014;-80
2023/12/22 00:35:25;;;;;;;62.90;4.85;;;;;;;;;;6365931;22;20014;-80
2023/12/22 00:37:52;;;;;;;34.10;3.70;;;;;;;;;;6366239;22;20010;-81
2023/12/22 00:40:19;;;;;;;66.45;5.18;;;;;;;;;;6365842;22;20018;-80
2023/12/22 00:42:46;;;;;;;52.88;4.90;;;;;;;;;;6365413;22;20169;-80
2023/12/22 00:45:12;;;;;;;57.65;5.90;;;;;;;;;;6365545;22;20021;-81
2023/12/22 00:47:39;;;;;;;32.22;3.33;;;;;;;;;;6365307;22;20025;-80
2023/12/22 00:50:07;;;;;;;37.30;5.53;;;;;;;;;;6365716;22;20011;-80
2023/12/22 00:52:34;;;;;;;59.70;5.05;;;;;;;;;;6365226;22;20018;-80
2023/12/22 00:55:01;;;;;;;46.90;4.13;;;;;;;;;;6365951;22;20018;-81
2023/12/22 00:57:28;;;;;;;42.10;4.63;;;;;;;;;;6338378;22;20049;-80
2023/12/22 00:59:54;;;;;;;47.10;4.55;;;;;;;;;;6365341;22;20014;-80
2023/12/22 01:02:21;;;;;;;40.75;3.90;;;;;;;;;;6364783;22;20026;-80
2023/12/22 01:04:48;;;;;;;97.70;7.88;;;;;;;;;;6338066;22;20015;-80
2023/12/22 01:07:15;;;;;;;51.85;5.32;;;;;;;;;;6365662;22;20014;-81
2023/12/22 01:09:42;;;;;;;26.33;3.67;;;;;;;;;;6365295;22;20601;-80
2023/12/22 01:12:10;;;;;;;79.13;6.10;;;;;;;;;;6365101;22;20011;-80
2023/12/22 01:14:38;;;;;;;47.85;4.70;;;;;;;;;;6365419;22;20019;-80
2023/12/22 01:17:04;;;;;;;54.38;4.45;;;;;;;;;;6338265;22;20007;-80
2023/12/22 01:19:31;;;;;;;68.05;5.45;;;;;;;;;;6365411;22;20019;-82
2023/12/22 01:21:58;;;;;;;53.78;4.72;;;;;;;;;;6337635;22;20091;-80
2023/12/22 01:24:24;;;;;;;54.25;5.40;;;;;;;;;;6365880;22;20663;-80
2023/12/22 01:26:51;;;;;;;88.35;8.90;;;;;;;;;;6365454;22;20071;-80
2023/12/22 01:29:18;;;;;;;57.58;5.78;;;;;;;;;;6367616;22;20026;-80
2023/12/22 01:31:44;;;;;;;107.88;8.52;;;;;;;;;;6366948;22;20010;-80
2023/12/22 01:37:15;;;;;;;;;;;;;;;;;;6363161;22;20029;-80
2023/12/22 01:39:42;;;;;;;21.38;3.15;;;;;;;;;;6367633;22;19918;-80
2023/12/22 01:42:08;;;;;;;63.15;5.47;;;;;;;;;;6367695;22;20085;-80
2023/12/22 01:44:35;;;;;;;72.72;6.30;;;;;;;;;;6368209;22;20022;-80
2023/12/22 01:47:02;;;;;;;24.83;2.72;;;;;;;;;;6367158;22;20019;-80
2023/12/22 01:49:29;;;;;;;68.40;5.93;;;;;;;;;;6367233;22;20089;-80
2023/12/22 01:51:56;;;;;;;88.05;7.40;;;;;;;;;;6367469;22;20042;-80
2023/12/22 01:54:23;;;;;;;34.72;3.38;;;;;;;;;;6367488;22;20102;-80
2023/12/22 01:56:50;;;;;;;61.20;5.72;;;;;;;;;;6367540;22;20021;-80
2023/12/22 01:59:17;;;;;;;92.05;7.65;;;;;;;;;;6339851;22;20018;-80
2023/12/22 02:01:45;;;;;;;133.55;9.88;;;;;;;;;;6348177;22;20018;-90
2023/12/22 02:04:14;;;;;;;80.25;5.57;;;;;;;;;;6371410;22;20113;-90
2023/12/22 02:06:41;;;;;;;84.47;6.50;;;;;;;;;;6372678;22;20022;-91
2023/12/22 02:09:07;;;;;;;45.22;4.65;;;;;;;;;;6372167;22;20017;-89
2023/12/22 02:11:34;;;;;;;65.70;5.78;;;;;;;;;;6367876;22;20018;-91
2023/12/22 02:14:01;;;;;;;82.43;6.82;;;;;;;;;;6367596;22;20029;-90
2023/12/22 02:16:27;;;;;;;83.68;7.35;;;;;;;;;;6367577;22;20045;-90
2023/12/22 02:18:55;;;;;;;85.50;6.38;;;;;;;;;;6366718;22;20018;-91
2023/12/22 02:21:22;;;;;;;101.60;7.55;;;;;;;;;;6367139;22;20021;-90
2023/12/22 02:23:48;;;;;;;46.38;4.80;;;;;;;;;;6367717;22;20018;-91
2023/12/22 02:26:36;;;;;;;53.47;5.05;;;;;;;;;;6367484;22;20441;-92
2023/12/22 02:29:02;;;;;;;20.55;3.28;;;;;;;;;;6367802;22;20337;-92
2023/12/22 02:31:37;;;;;;;93.25;6.32;;;;;;;;;;6366684;22;20010;-91
2023/12/22 02:34:07;;;;;;;74.75;5.28;;;;;;;;;;6366673;22;20468;-91
2023/12/22 02:36:36;;;;;;;40.65;4.15;;;;;;;;;;6367391;22;20024;-92
2023/12/22 02:39:03;;;;;;;42.88;3.85;;;;;;;;;;6366910;22;20022;-91
2023/12/22 02:41:30;;;;;;;93.45;6.63;;;;;;;;;;6366563;22;20025;-91
2023/12/22 02:43:57;;;;;;;50.05;4.47;;;;;;;;;;6367261;22;20025;-91
2023/12/22 02:46:24;;;;;;;60.42;6.50;;;;;;;;;;6367271;22;20045;-92
2023/12/22 02:48:50;;;;;;;112.97;7.97;;;;;;;;;;6366069;22;20075;-91
2023/12/22 02:51:17;;;;;;;61.17;5.18;;;;;;;;;;6367169;22;20019;-91
2023/12/22 02:53:43;;;;;;;52.40;4.57;;;;;;;;;;6366673;22;20018;-91
2023/12/22 02:56:10;;;;;;;78.00;6.88;;;;;;;;;;6366552;22;20017;-91
2023/12/22 02:58:36;;;;;;;50.72;4.45;;;;;;;;;;6367764;22;20026;-90
2023/12/22 03:01:03;;;;;;;36.65;3.88;;;;;;;;;;6367015;22;20030;-90
2023/12/22 03:03:30;;;;;;;78.45;5.50;;;;;;;;;;6365573;22;20049;-91
2023/12/22 03:05:56;;;;;;;63.92;5.38;;;;;;;;;;6366893;22;20018;-91
2023/12/22 03:08:23;;;;;;;77.85;6.60;;;;;;;;;;6367466;22;20048;-91
2023/12/22 03:10:49;;;;;;;69.07;6.68;;;;;;;;;;6338599;22;20118;-91
2023/12/22 03:13:16;;;;;;;45.08;4.28;;;;;;;;;;6366476;22;20022;-91
2023/12/22 03:15:42;;;;;;;47.58;4.53;;;;;;;;;;6367217;22;20018;-90
2023/12/22 03:18:09;;;;;;;96.30;7.05;;;;;;;;;;6366127;22;20509;-91
2023/12/22 03:45:25;;;;;;;91.05;7.72;;;;;;;;;;5024652;28;20545;-92
2023/12/22 03:47:54;;;;;;;140.98;10.85;;;;;;;;;;5008816;28;20068;-91
2023/12/22 03:50:21;;;;;;;83.90;6.72;;;;;;;;;;5049053;28;20101;-92
2023/12/22 03:52:48;;;;;;;85.50;6.18;;;;;;;;;;5038596;28;20025;-92
2023/12/22 03:55:14;;;;;;;169.77;13.82;;;;;;;;;;5034300;28;20052;-91
2023/12/22 03:57:41;;;;;;;215.48;17.35;;;;;;;;;;5012906;28;20064;-91
2023/12/22 04:00:08;;;;;;;44.13;4.63;;;;;;;;;;5012037;28;20037;-91
2023/12/22 04:02:35;;;;;;;160.20;12.98;;;;;;;;;;5027228;28;20041;-91
2023/12/22 04:05:02;;;;;;;32.65;4.00;;;;;;;;;;5019974;28;20601;-91
2023/12/22 04:07:29;;;;;;;58.22;6.15;;;;;;;;;;5021640;28;20618;-91
2023/12/22 04:09:56;;;;;;;83.15;6.72;;;;;;;;;;5031755;28;20049;-91
2023/12/22 04:12:22;;;;;;;69.70;5.80;;;;;;;;;;5020152;28;20475;-91
2023/12/22 04:14:49;;;;;;;136.98;11.57;;;;;;;;;;5017858;28;20183;-91
2023/12/22 04:17:16;;;;;;;160.35;12.82;;;;;;;;;;5012815;28;20068;-91
2023/12/22 04:19:42;;;;;;;76.85;7.00;;;;;;;;;;5014117;28;20044;-92
2023/12/22 04:22:09;;;;;;;82.50;7.88;;;;;;;;;;5006073;28;20926;-91
2023/12/22 04:24:36;;;;;;;81.35;6.63;;;;;;;;;;5021509;28;20219;-92
2023/12/22 04:27:03;;;;;;;95.72;8.48;;;;;;;;;;5006306;28;20046;-92
2023/12/22 04:29:30;;;;;;;17.58;3.35;;;;;;;;;;5013872;28;20459;-91
2023/12/22 04:31:56;;;;;;;99.30;7.22;;;;;;;;;;5022651;28;20559;-93
2023/12/22 04:34:23;;;;;;;96.95;8.55;;;;;;;;;;5017950;28;20033;-91
2023/12/22 04:36:50;;;;;;;53.72;5.50;;;;;;;;;;5026076;28;20083;-92
2023/12/22 04:39:16;;;;;;;85.32;7.22;;;;;;;;;;5028914;28;20034;-92
2023/12/22 04:41:43;;;;;;;95.80;8.63;;;;;;;;;;5038977;28;20029;-92
2023/12/22 04:44:10;;;;;;;49.92;5.07;;;;;;;;;;5027906;28;20049;-92
2023/12/22 04:46:38;;;;;;;86.22;6.43;;;;;;;;;;5026227;28;20037;-92
2023/12/22 04:49:05;;;;;;;36.80;4.20;;;;;;;;;;5028890;28;20180;-93
2023/12/22 04:51:32;;;;;;;44.28;4.60;;;;;;;;;;5032735;28;20142;-91
2023/12/22 04:53:59;;;;;;;84.10;6.65;;;;;;;;;;5016695;28;20140;-91
2023/12/22 04:56:26;;;;;;;122.57;9.68;;;;;;;;;;4988676;28;20033;-91
2023/12/22 04:58:53;;;;;;;131.48;10.35;;;;;;;;;;4986080;28;20857;-91
2023/12/22 05:01:20;;;;;;;242.35;19.83;;;;;;;;;;4977729;28;20661;-91
2023/12/22 05:03:47;;;;;;;204.48;15.50;;;;;;;;;;4961999;28;21091;-91
2023/12/22 05:06:14;;;;;;;173.18;14.73;;;;;;;;;;4972037;28;20567;-92
2023/12/22 05:08:41;;;;;;;162.95;12.82;;;;;;;;;;5021328;28;20052;-91
2023/12/22 05:11:08;;;;;;;79.75;7.05;;;;;;;;;;4988216;28;20128;-91
2023/12/22 05:13:34;;;;;;;32.85;4.03;;;;;;;;;;4993728;28;20040;-91
2023/12/22 05:16:01;;;;;;;68.88;5.75;;;;;;;;;;5003461;28;20048;-91
2023/12/22 05:18:28;;;;;;;96.15;7.78;;;;;;;;;;4994598;28;20038;-91
2023/12/22 05:20:55;;;;;;;96.72;10.27;;;;;;;;;;5001061;28;20480;-92
2023/12/22 05:23:21;;;;;;;82.55;7.43;;;;;;;;;;5001905;28;20044;-92
2023/12/22 05:25:48;;;;;;;129.65;10.32;;;;;;;;;;5003157;28;20582;-91
2023/12/22 05:28:15;;;;;;;58.90;5.80;;;;;;;;;;5010528;28;20041;-91
2023/12/22 05:30:42;;;;;;;83.32;9.00;;;;;;;;;;4997573;28;20048;-91
2023/12/22 05:33:08;;;;;;;78.35;8.02;;;;;;;;;;5013070;28;20038;-91
2023/12/22 05:35:35;;;;;;;167.60;15.00;;;;;;;;;;4991387;28;20068;-91
2023/12/22 05:38:06;;;;;;;58.78;5.53;;;;;;;;;;4990637;28;20044;-91
2023/12/22 05:40:33;;;;;;;79.85;7.80;;;;;;;;;;5010272;28;20554;-91
2023/12/22 05:42:59;;;;;;;46.28;3.92;;;;;;;;;;5009117;28;20591;-91
2023/12/22 05:45:26;;;;;;;68.80;6.63;;;;;;;;;;5009937;28;20033;-91
2023/12/22 05:47:53;;;;;;;94.55;8.73;;;;;;;;;;5005627;28;20507;-91
2023/12/22 05:50:20;;;;;;;279.85;22.27;;;;;;;;;;4976632;28;20972;-89
2023/12/22 05:52:47;;;;;;;356.88;28.88;;;;;;;;;;4958306;28;20026;-92
2023/12/22 05:55:14;;;;;;;329.25;25.83;;;;;;;;;;4988589;28;20120;-91
2023/12/22 05:57:40;;;;;;;384.58;31.92;;;;;;;;;;4957110;28;20029;-91
2023/12/22 06:00:09;;;;;;;315.25;25.67;;;;;;;;;;4972182;28;20873;-91
2023/12/22 06:02:36;;;;;;;356.83;29.40;;;;;;;;;;4964038;28;20862;-92
2023/12/22 06:05:03;;;;;;;391.95;31.33;;;;;;;;;;4958247;28;20037;-91
2023/12/22 06:07:30;;;;;;;209.55;18.42;;;;;;;;;;4955903;28;20830;-91
2023/12/22 06:09:56;;;;;;;550.20;46.00;;;;;;;;;;4978168;28;21026;-91
2023/12/22 06:12:23;;;;;;;525.10;45.50;;;;;;;;;;4945484;28;20040;-91
2023/12/22 06:14:50;;;;;;;532.72;45.47;;;;;;;;;;4942938;28;20038;-91
2023/12/22 06:17:16;;;;;;;600.78;51.47;;;;;;;;;;4942141;28;20042;-91
2023/12/22 06:19:43;;;;;;;225.95;19.77;;;;;;;;;;4951072;28;20460;-92
2023/12/22 06:22:09;;;;;;;437.85;36.60;;;;;;;;;;4951029;28;20042;-91
2023/12/22 06:24:36;;;;;;;346.70;27.70;;;;;;;;;;4950699;28;20098;-92
2023/12/22 06:27:03;;;;;;;321.92;25.98;;;;;;;;;;4952465;28;20041;-91
2023/12/22 06:29:30;;;;;;;315.13;26.02;;;;;;;;;;4957280;28;20053;-91
2023/12/22 06:31:57;;;;;;;262.05;21.88;;;;;;;;;;4971072;28;20041;-91
2023/12/22 06:34:25;;;;;;;221.13;17.70;;;;;;;;;;4964911;28;20033;-91
2023/12/22 06:36:52;;;;;;;243.23;19.02;;;;;;;;;;4965553;28;20045;-91
2023/12/22 06:39:19;;;;;;;201.98;15.82;;;;;;;;;;4985407;28;20029;-91
2023/12/22 06:41:46;;;;;;;275.15;21.70;;;;;;;;;;4969445;28;20034;-91
2023/12/22 06:44:13;;;;;;;260.83;21.30;;;;;;;;;;4966016;28;20965;-91
2023/12/22 06:46:40;;;;;;;183.40;15.50;;;;;;;;;;4967810;28;20045;-91
2023/12/22 06:49:07;;;;;;;410.73;34.65;;;;;;;;;;4969768;28;20909;-92
2023/12/22 06:51:35;;;;;;;217.75;19.23;;;;;;;;;;4954413;28;20072;-90
2023/12/22 06:54:02;;;;;;;219.10;18.52;;;;;;;;;;4967275;28;20555;-91
2023/12/22 06:56:30;;;;;;;360.60;28.60;;;;;;;;;;4959889;28;20552;-91
2023/12/22 06:58:57;;;;;;;262.63;22.05;;;;;;;;;;4960720;28;20038;-91
2023/12/22 07:01:28;;;;;;;115.35;9.07;;;;;;;;;;4965402;28;20037;-91
2023/12/22 07:03:56;;;;;;;429.55;36.88;;;;;;;;;;4959845;28;20052;-92
2023/12/22 07:06:26;;;;;;;170.15;14.00;;;;;;;;;;4970838;28;20033;-90
2023/12/22 07:08:56;;;;;;;208.73;16.73;;;;;;;;;;4958344;28;20103;-92
2023/12/22 07:11:23;;;;;;;241.82;19.40;;;;;;;;;;4963928;28;20048;-90
2023/12/22 07:14:00;;;;;;;127.82;10.98;;;;;;;;;;4995304;28;20056;-92
2023/12/22 07:16:27;;;;;;;90.03;7.50;;;;;;;;;;4983092;28;20573;-91
2023/12/22 07:18:54;;;;;;;207.75;17.25;;;;;;;;;;4985741;28;20514;-91
2023/12/22 07:21:21;;;;;;;146.70;12.18;;;;;;;;;;4993174;28;20087;-91
2023/12/22 07:23:47;;;;;;;108.63;8.65;;;;;;;;;;4977365;28;20033;-90
2023/12/22 07:26:14;;;;;;;701.85;63.40;;;;;;;;;;4949097;28;20057;-89
2023/12/22 07:28:46;;;;;;;76.10;6.40;;;;;;;;;;4954963;28;20183;-91
2023/12/22 07:31:14;;;;;;;124.22;9.98;;;;;;;;;;4971234;28;20067;-91
2023/12/22 07:33:41;;;;;;;49.47;3.72;;;;;;;;;;4986687;28;20037;-90
2023/12/22 07:36:07;;;;;;;260.10;20.95;;;;;;;;;;4957697;28;20041;-91
2023/12/22 07:38:34;;;;;;;152.65;12.05;;;;;;;;;;4955218;28;20045;-91
2023/12/22 07:41:00;;;;;;;338.45;26.75;;;;;;;;;;4954198;28;20042;-92
2023/12/22 07:43:29;;;;;;;66.03;5.57;;;;;;;;;;4975159;28;20053;-91
2023/12/22 07:45:56;;;;;;;84.13;7.18;;;;;;;;;;4998222;28;20049;-91
2023/12/22 07:48:23;;;;;;;1002.53;92.82;;;;;;;;;;5181978;22;20049;-81
2023/12/22 07:50:51;;;;;;;940.00;85.72;;;;;;;;;;4919833;28;20187;-81
2023/12/22 07:53:17;;;;;;;981.83;90.55;;;;;;;;;;4927673;28;20647;-80
2023/12/22 07:55:44;;;;;;;917.58;83.75;;;;;;;;;;4933525;28;20479;-81
2023/12/22 07:58:11;;;;;;;921.85;84.00;;;;;;;;;;4896863;28;20121;-80
2023/12/22 08:00:37;;;;;;;953.53;87.30;;;;;;;;;;4886592;28;20041;-79
2023/12/22 08:03:04;;;;;;;933.30;85.45;;;;;;;;;;4888508;28;20061;-80
2023/12/22 08:05:31;;;;;;;936.15;85.75;;;;;;;;;;4893530;28;20041;-80
2023/12/22 08:07:58;;;;;;;998.55;93.15;;;;;;;;;;4897159;28;20981;-79
2023/12/22 08:10:27;;;;;;;933.50;85.28;;;;;;;;;;4888089;28;20053;-80
2023/12/22 08:12:53;;;;;;;957.67;88.80;;;;;;;;;;4900611;28;20038;-79
2023/12/22 08:15:20;;;;;;;970.88;90.53;;;;;;;;;;4901246;28;20119;-80
2023/12/22 08:17:58;;;;;;;1013.00;93.38;;;;;;;;;;4900675;28;20655;-80
2023/12/22 08:20:25;;;;;;;960.22;88.88;;;;;;;;;;4906995;28;21174;-80
2023/12/22 08:22:58;;;;;;;950.75;87.07;;;;;;;;;;4909408;28;20045;-80
2023/12/22 08:25:30;;;;;;;944.43;85.73;;;;;;;;;;4911210;28;21208;-78
2023/12/22 08:27:57;;;;;;;988.42;91.18;;;;;;;;;;4911081;28;20046;-79
2023/12/22 08:30:24;;;;;;;949.08;86.82;;;;;;;;;;4911636;28;20033;-80
2023/12/22 08:32:51;;;;;;;931.40;85.07;;;;;;;;;;4881778;28;20152;-78
2023/12/22 08:35:17;;;;;;;996.00;90.80;;;;;;;;;;4875789;28;20042;-79
2023/12/22 08:37:44;;;;;;;848.50;75.43;;;;;;;;;;4890969;28;21030;-80
2023/12/22 08:40:11;;;;;;;898.95;81.68;;;;;;;;;;4890000;28;20145;-82
2023/12/22 08:42:39;;;;;;;759.00;66.47;;;;;;;;;;4906784;28;20064;-87
2023/12/22 08:45:05;;;;;;;897.67;81.72;;;;;;;;;;4914841;28;20038;-82
2023/12/22 08:47:33;;;;;;;924.78;84.88;;;;;;;;;;4897790;28;20049;-82
2023/12/22 08:50:03;;;;;;;146.38;10.25;;;;;;;;;;4917079;28;20709;-90
2023/12/22 08:52:30;;;;;;;970.95;89.07;;;;;;;;;;4922460;28;20048;-79
2023/12/22 08:54:56;;;;;;;922.15;84.28;;;;;;;;;;4901356;28;20122;-78
2023/12/22 08:57:23;;;;;;;964.38;90.20;;;;;;;;;;4894841;28;20108;-79
2023/12/22 08:59:50;;;;;;;973.08;89.60;;;;;;;;;;4915038;28;21207;-78
2023/12/22 09:02:17;;;;;;;926.50;84.78;;;;;;;;;;4926027;28;21014;-87
2023/12/22 09:04:43;;;;;;;885.47;79.05;;;;;;;;;;4915349;28;20901;-79
2023/12/22 09:07:10;;;;;;;842.28;74.65;;;;;;;;;;4900250;28;20101;-80
2023/12/22 09:09:37;;;;;;;771.35;66.78;;;;;;;;;;4900676;28;20045;-79
2023/12/22 09:12:04;;;;;;;770.50;66.78;;;;;;;;;;4912223;28;20038;-80
2023/12/22 09:14:31;;;;;;;801.88;69.40;;;;;;;;;;4913997;28;20030;-78
2023/12/22 09:16:57;;;;;;;662.45;55.00;;;;;;;;;;4923418;28;21058;-79
2023/12/22 09:19:24;;;;;;;948.75;87.13;;;;;;;;;;4904031;28;20041;-78
2023/12/22 09:21:51;;;;;;;940.65;86.47;;;;;;;;;;4894762;28;21114;-78
2023/12/22 09:24:19;;;;;;;935.30;85.45;;;;;;;;;;4896640;28;20044;-78
2023/12/22 09:26:45;;;;;;;890.50;81.20;;;;;;;;;;4900705;28;20888;-78
2023/12/22 09:29:12;;;;;;;894.75;81.55;;;;;;;;;;4902351;28;20204;-78
2023/12/22 09:31:39;;;;;;;795.08;71.55;;;;;;;;;;4920862;28;20940;-79
2023/12/22 09:34:06;;;;;;;895.38;81.88;;;;;;;;;;4924329;28;20978;-82
2023/12/22 09:36:33;;;;;;;849.15;76.57;;;;;;;;;;4915003;28;20873;-89
2023/12/22 09:38:59;;;;;;;983.90;90.95;;;;;;;;;;4916567;28;20952;-79
2023/12/22 09:41:26;;;;;;;702.28;62.85;;;;;;;;;;4880567;28;20063;-80
2023/12/22 09:43:54;;;;;;;981.42;90.00;;;;;;;;;;4879356;28;20042;-80
2023/12/22 09:46:21;;;;;;;1105.00;105.78;;;;;;;;;;4863637;28;20036;-83
2023/12/22 09:48:49;;;;;;;1055.68;100.45;;;;;;;;;;4859036;28;20094;-82
2023/12/22 09:51:17;;;;;;;977.63;89.22;;;;;;;;;;4867812;28;20035;-80
2023/12/22 09:53:44;;;;;;;1123.07;107.00;;;;;;;;;;4897802;28;20118;-80
2023/12/22 09:56:12;;;;;;;932.10;85.13;;;;;;;;;;4867421;28;20104;-80
2023/12/22 09:58:39;;;;;;;1059.00;100.50;;;;;;;;;;4866126;28;20970;-79
2023/12/22 10:01:06;;;;;;;879.72;79.47;;;;;;;;;;4889875;28;20033;-79
2023/12/22 10:03:33;;;;;;;930.00;84.45;;;;;;;;;;4904117;28;20033;-80
2023/12/22 10:06:00;;;;;;;935.35;85.32;;;;;;;;;;4901181;28;20049;-80
2023/12/22 10:08:27;;;;;;;914.58;83.10;;;;;;;;;;4906389;28;20041;-80
2023/12/22 10:10:55;;;;;;;920.72;83.88;;;;;;;;;;4908516;28;20869;-80
2023/12/22 10:13:21;;;;;;;955.92;87.22;;;;;;;;;;4909661;28;20046;-80
2023/12/22 10:15:48;;;;;;;926.83;84.28;;;;;;;;;;4879548;28;20145;-81
2023/12/22 10:18:15;;;;;;;920.30;86.55;;;;;;;;;;4880880;28;20046;-81
2023/12/22 10:20:42;;;;;;;932.53;85.13;;;;;;;;;;4889295;28;20042;-80
2023/12/22 10:23:09;;;;;;;988.17;91.28;;;;;;;;;;4888738;28;20869;-80
2023/12/22 10:25:36;;;;;;;908.78;80.80;;;;;;;;;;4891756;28;20033;-81
2023/12/22 10:28:03;;;;;;;918.00;81.53;;;;;;;;;;4894121;28;20033;-81
2023/12/22 10:30:30;;;;;;;973.60;87.65;;;;;;;;;;4907685;28;20687;-80
2023/12/22 10:32:56;;;;;;;941.90;84.32;;;;;;;;;;4898063;28;20067;-80
2023/12/22 10:35:24;;;;;;;956.75;86.28;;;;;;;;;;4904104;28;20067;-80
2023/12/22 10:37:53;;;;;;;970.92;86.22;;;;;;;;;;4910413;28;20215;-81
2023/12/22 10:40:20;;;;;;;950.50;85.55;;;;;;;;;;4910919;28;20037;-82
2023/12/22 10:42:48;;;;;;;895.70;82.47;;;;;;;;;;4914096;28;20063;-84
2023/12/22 10:45:17;;;;;;;941.35;86.32;;;;;;;;;;4919966;28;20052;-80
2023/12/22 10:47:44;;;;;;;909.92;83.68;;;;;;;;;;4914420;28;20048;-80
2023/12/22 10:50:14;;;;;;;924.78;84.80;;;;;;;;;;4887404;28;20114;-79
2023/12/22 10:52:41;;;;;;;903.33;81.78;;;;;;;;;;4882272;28;20057;-82
2023/12/22 10:55:08;;;;;;;786.90;68.25;;;;;;;;;;4905305;28;20983;-84
2023/12/22 10:57:37;;;;;;;850.80;77.43;;;;;;;;;;4905840;28;20044;-83
2023/12/22 11:00:07;;;;;;;921.00;83.65;;;;;;;;;;4890728;28;20851;-82
2023/12/22 11:02:34;;;;;;;930.47;85.05;;;;;;;;;;4889433;28;20033;-81
2023/12/22 11:05:05;;;;;;;930.50;84.93;;;;;;;;;;4891664;28;20875;-81
2023/12/22 11:07:37;;;;;;;907.17;82.70;;;;;;;;;;4899980;28;21076;-81
2023/12/22 11:10:07;;;;;;;891.60;81.38;;;;;;;;;;4893392;28;20711;-82
2023/12/22 11:12:37;;;;;;;885.03;80.57;;;;;;;;;;4906823;28;20037;-83
2023/12/22 11:15:08;;;;;;;917.15;83.72;;;;;;;;;;4907594;28;20243;-81
2023/12/22 11:17:39;;;;;;;896.05;81.85;;;;;;;;;;4908470;28;20171;-82
2023/12/22 11:20:12;;;;;;;883.67;80.22;;;;;;;;;;4914627;28;21357;-82
2023/12/22 11:22:39;;;;;;;792.90;69.97;;;;;;;;;;4936391;28;21008;-82
2023/12/22 11:25:07;;;;;;;940.25;86.85;;;;;;;;;;4884074;28;20057;-81
2023/12/22 11:27:34;;;;;;;894.38;80.95;;;;;;;;;;4886391;28;20983;-82
2023/12/22 11:30:04;;;;;;;913.28;83.25;;;;;;;;;;4883338;28;20038;-81
2023/12/22 11:32:31;;;;;;;912.17;83.68;;;;;;;;;;4886284;28;21004;-81
2023/12/22 11:34:59;;;;;;;925.70;86.25;;;;;;;;;;4889784;28;20046;-81
2023/12/22 11:37:26;;;;;;;942.70;87.50;;;;;;;;;;4889483;28;20045;-81
2023/12/22 11:39:53;;;;;;;922.20;85.50;;;;;;;;;;4891051;28;20064;-81
2023/12/22 11:42:24;;;;;;;877.38;81.00;;;;;;;;;;4898121;28;20038;-81
2023/12/22 11:44:52;;;;;;;816.13;73.78;;;;;;;;;;4904277;28;20047;-81
2023/12/22 11:47:24;;;;;;;870.10;79.70;;;;;;;;;;4894699;28;20058;-82
2023/12/22 11:49:51;;;;;;;873.63;80.13;;;;;;;;;;4906809;28;20041;-81
2023/12/22 11:52:18;;;;;;;868.33;79.82;;;;;;;;;;4917911;28;20534;-80
2023/12/22 11:54:48;;;;;;;879.50;80.20;;;;;;;;;;4906053;28;20046;-80
2023/12/22 11:57:27;;;;;;;960.78;94.18;;;;;;;;;;4885323;28;21086;-83
2023/12/22 11:59:57;;;;;;;859.70;78.78;;;;;;;;;;4892709;28;21280;-86
2023/12/22 12:02:25;;;;;;;939.85;88.75;;;;;;;;;;4892465;28;20164;-81
2023/12/22 12:04:53;;;;;;;959.88;90.68;;;;;;;;;;4884192;28;20156;-81
2023/12/22 12:07:45;;;;;;;976.63;92.10;;;;;;;;;;4894095;28;20803;-81
2023/12/22 12:10:14;;;;;;;928.70;86.60;;;;;;;;;;4893404;28;21049;-81
2023/12/22 12:12:42;;;;;;;889.22;81.68;;;;;;;;;;4900031;28;20042;-82
2023/12/22 12:15:12;;;;;;;909.30;83.38;;;;;;;;;;4902765;28;20632;-81
2023/12/22 12:17:42;;;;;;;843.75;76.72;;;;;;;;;;4905334;28;20033;-86
2023/12/22 12:20:11;;;;;;;868.30;79.28;;;;;;;;;;4907406;28;20042;-82
2023/12/22 12:22:39;;;;;;;842.58;76.10;;;;;;;;;;4908223;28;20038;-82
2023/12/22 12:25:11;;;;;;;875.88;79.43;;;;;;;;;;4916755;28;20052;-81
2023/12/22 12:28:20;;;;;;;939.95;86.68;;;;;;;;;;4904517;28;20042;-82
2023/12/22 12:30:47;;;;;;;885.33;80.85;;;;;;;;;;4902329;28;20089;-81
2023/12/22 12:33:14;;;;;;;886.70;81.32;;;;;;;;;;4895039;28;20042;-82
2023/12/22 12:35:43;;;;;;;880.42;80.72;;;;;;;;;;4886062;28;20035;-82
2023/12/22 12:38:16;;;;;;;866.90;78.22;;;;;;;;;;4887558;28;20821;-81
2023/12/22 12:40:45;;;;;;;869.40;79.28;;;;;;;;;;4892640;28;20935;-81
2023/12/22 12:43:12;;;;;;;897.08;82.38;;;;;;;;;;4894577;28;20971;-81
2023/12/22 12:45:40;;;;;;;877.55;80.93;;;;;;;;;;4896910;28;20858;-81
2023/12/22 12:48:06;;;;;;;893.13;82.18;;;;;;;;;;4901757;28;20049;-81
2023/12/22 12:50:35;;;;;;;838.92;75.57;;;;;;;;;;4905198;28;20188;-82
2023/12/22 12:53:02;;;;;;;863.47;78.35;;;;;;;;;;4907200;28;20705;-81
2023/12/22 12:55:29;;;;;;;866.42;78.57;;;;;;;;;;4906072;28;20135;-81
2023/12/22 12:57:57;;;;;;;903.00;83.40;;;;;;;;;;4911654;28;20281;-82
2023/12/22 13:00:23;;;;;;;774.85;68.53;;;;;;;;;;4915129;28;20034;-85
2023/12/22 13:02:55;;;;;;;823.65;74.85;;;;;;;;;;4914761;28;21305;-82
2023/12/22 13:05:24;;;;;;;785.50;69.65;;;;;;;;;;4915589;28;20108;-82
2023/12/22 13:08:05;;;;;;;888.88;80.22;;;;;;;;;;4897623;28;20884;-81
2023/12/22 13:10:32;;;;;;;898.38;82.97;;;;;;;;;;4887432;28;20064;-81
2023/12/22 13:12:59;;;;;;;916.70;84.03;;;;;;;;;;4888186;28;20069;-81
2023/12/22 13:15:26;;;;;;;871.83;79.38;;;;;;;;;;4892789;28;21070;-82
2023/12/22 13:17:52;;;;;;;843.70;77.07;;;;;;;;;;4893770;28;20145;-82
2023/12/22 13:20:20;;;;;;;867.30;79.13;;;;;;;;;;4896623;28;20042;-83
2023/12/22 13:22:47;;;;;;;857.45;77.80;;;;;;;;;;4899788;28;20529;-81
2023/12/22 13:25:14;;;;;;;892.15;81.75;;;;;;;;;;4901792;28;20088;-81
2023/12/22 13:27:47;;;;;;;878.80;80.80;;;;;;;;;;4902610;28;20352;-82
2023/12/22 13:30:15;;;;;;;877.90;80.68;;;;;;;;;;4905627;28;20043;-81
2023/12/22 13:32:42;;;;;;;888.70;81.40;;;;;;;;;;4925321;28;20137;-81
2023/12/22 13:35:09;;;;;;;928.72;85.97;;;;;;;;;;4911598;28;20056;-81
2023/12/22 13:37:40;;;;;;;902.38;82.22;;;;;;;;;;4928688;28;20052;-81
2023/12/22 13:40:08;;;;;;;893.38;82.53;;;;;;;;;;4925663;28;20062;-81
2023/12/22 13:42:35;;;;;;;911.75;84.32;;;;;;;;;;4903809;28;20066;-80
2023/12/22 13:45:03;;;;;;;897.05;82.35;;;;;;;;;;4888522;28;20113;-81
2023/12/22 13:47:30;;;;;;;743.03;65.32;;;;;;;;;;4899038;28;20034;-81
2023/12/22 13:49:57;;;;;;;666.35;56.15;;;;;;;;;;4935854;28;20058;-81
2023/12/22 13:52:29;;;;;;;856.03;78.05;;;;;;;;;;4908789;28;20911;-81
2023/12/22 13:54:56;;;;;;;839.65;76.38;;;;;;;;;;4899856;28;20046;-83
2023/12/22 13:57:26;;;;;;;876.42;80.38;;;;;;;;;;4900882;28;21073;-82
2023/12/22 13:59:53;;;;;;;885.55;81.10;;;;;;;;;;4905275;28;20038;-82
2023/12/22 14:02:21;;;;;;;589.83;48.53;;;;;;;;;;4912449;28;20038;-82
2023/12/22 14:04:49;;;;;;;663.45;56.88;;;;;;;;;;4927545;28;20035;-82
2023/12/22 14:07:16;;;;;;;873.83;79.47;;;;;;;;;;4934955;28;20026;-82
2023/12/22 14:09:43;;;;;;;866.30;78.82;;;;;;;;;;4910675;28;20041;-81
2023/12/22 14:12:11;;;;;;;829.55;75.32;;;;;;;;;;4917812;28;20038;-82
2023/12/22 14:14:46;;;;;;;731.50;63.80;;;;;;;;;;4940599;28;21096;-82
2023/12/22 14:17:13;;;;;;;741.75;64.93;;;;;;;;;;4906476;28;20628;-82
2023/12/22 14:19:40;;;;;;;749.35;65.47;;;;;;;;;;4911603;28;20199;-81
2023/12/22 14:22:06;;;;;;;834.08;75.03;;;;;;;;;;4899352;28;20093;-82
2023/12/22 14:24:34;;;;;;;847.55;77.18;;;;;;;;;;4902273;28;20046;-82
2023/12/22 14:27:00;;;;;;;815.45;73.00;;;;;;;;;;4903961;28;20039;-82
2023/12/22 14:29:28;;;;;;;838.97;77.07;;;;;;;;;;4899439;28;20038;-82
2023/12/22 14:31:54;;;;;;;883.30;80.90;;;;;;;;;;4902725;28;21139;-81
2023/12/22 14:34:22;;;;;;;850.83;78.45;;;;;;;;;;4906491;28;20049;-82
2023/12/22 14:36:49;;;;;;;853.00;77.45;;;;;;;;;;4903422;28;20038;-82
2023/12/22 14:39:16;;;;;;;804.47;72.05;;;;;;;;;;4913242;28;20908;-84
2023/12/22 14:41:42;;;;;;;898.78;83.13;;;;;;;;;;4912865;28;21455;-81
2023/12/22 14:44:09;;;;;;;844.65;77.03;;;;;;;;;;4913990;28;20906;-84